sensor_id;sensor_type;location;lat;lon;timestamp;temperature;humidity
65408;DHT22;52017;51.230;-2.322;2022-10-16T00:00:53;13.40;68.90
65408;DHT22;52017;51.230;-2.322;2022-10-16T00:04:35;13.40;68.80
65408;DHT22;52017;51.230;-2.322;2022-10-16T00:08:17;13.40;68.80
65408;DHT22;52017;51.230;-2.322;2022-10-16T00:11:59;13.40;68.80
65408;DHT22;52017;51.230;-2.322;2022-10-16T00:15:41;13.40;68.80
65408;DHT22;52017;51.230;-2.322;2022-10-16T00:19:25;13.40;68.80
65408;DHT22;52017;51.230;-2.322;2022-10-16T00:23:07;13.30;68.70
65408;DHT22;52017;51.230;-2.322;2022-10-16T00:26:50;13.20;68.70
65408;DHT22;52017;51.230;-2.322;2022-10-16T00:30:32;13.20;68.80
65408;DHT22;52017;51.230;-2.322;2022-10-16T00:34:14;13.10;68.60
65408;DHT22;52017;51.230;-2.322;2022-10-16T00:37:56;13.10;68.40
65408;DHT22;52017;51.230;-2.322;2022-10-16T00:41:38;13.10;68.40
65408;DHT22;52017;51.230;-2.322;2022-10-16T00:45:20;13.10;68.10
65408;DHT22;52017;51.230;-2.322;2022-10-16T00:49:04;13.00;67.90
65408;DHT22;52017;51.230;-2.322;2022-10-16T00:52:48;13.00;67.80
65408;DHT22;52017;51.230;-2.322;2022-10-16T00:56:32;13.00;67.70
65408;DHT22;52017;51.230;-2.322;2022-10-16T01:00:18;12.90;67.60
65408;DHT22;52017;51.230;-2.322;2022-10-16T01:04:00;12.90;67.50
65408;DHT22;52017;51.230;-2.322;2022-10-16T01:08:13;12.80;67.30
65408;DHT22;52017;51.230;-2.322;2022-10-16T01:16:12;12.80;67.00
65408;DHT22;52017;51.230;-2.322;2022-10-16T01:27:45;12.60;67.20
65408;DHT22;52017;51.230;-2.322;2022-10-16T01:31:32;12.60;67.30
65408;DHT22;52017;51.230;-2.322;2022-10-16T01:35:23;12.60;67.40
65408;DHT22;52017;51.230;-2.322;2022-10-16T01:39:09;12.50;67.60
65408;DHT22;52017;51.230;-2.322;2022-10-16T01:43:16;12.50;67.60
65408;DHT22;52017;51.230;-2.322;2022-10-16T01:47:00;12.50;68.00
65408;DHT22;52017;51.230;-2.322;2022-10-16T01:50:44;12.50;67.90
65408;DHT22;52017;51.230;-2.322;2022-10-16T01:54:31;12.40;68.20
65408;DHT22;52017;51.230;-2.322;2022-10-16T01:58:15;12.40;68.30
65408;DHT22;52017;51.230;-2.322;2022-10-16T02:01:59;12.40;68.20
65408;DHT22;52017;51.230;-2.322;2022-10-16T02:05:55;12.40;68.30
65408;DHT22;52017;51.230;-2.322;2022-10-16T02:09:38;12.30;68.40
65408;DHT22;52017;51.230;-2.322;2022-10-16T02:13:41;12.30;68.40
65408;DHT22;52017;51.230;-2.322;2022-10-16T02:17:27;12.30;68.80
65408;DHT22;52017;51.230;-2.322;2022-10-16T02:21:22;12.20;68.50
65408;DHT22;52017;51.230;-2.322;2022-10-16T02:25:34;12.20;69.00
65408;DHT22;52017;51.230;-2.322;2022-10-16T02:29:22;12.10;69.30
65408;DHT22;52017;51.230;-2.322;2022-10-16T02:33:08;12.10;68.90
65408;DHT22;52017;51.230;-2.322;2022-10-16T02:36:51;12.00;68.90
65408;DHT22;52017;51.230;-2.322;2022-10-16T02:40:34;12.00;69.10
65408;DHT22;52017;51.230;-2.322;2022-10-16T02:44:17;12.00;69.20
65408;DHT22;52017;51.230;-2.322;2022-10-16T02:47:59;11.90;69.40
65408;DHT22;52017;51.230;-2.322;2022-10-16T02:51:41;11.90;69.50
65408;DHT22;52017;51.230;-2.322;2022-10-16T02:55:23;11.80;69.50
65408;DHT22;52017;51.230;-2.322;2022-10-16T02:59:05;11.80;69.60
65408;DHT22;52017;51.230;-2.322;2022-10-16T03:02:47;11.70;69.70
65408;DHT22;52017;51.230;-2.322;2022-10-16T03:06:29;11.70;69.70
65408;DHT22;52017;51.230;-2.322;2022-10-16T03:10:11;11.70;69.90
65408;DHT22;52017;51.230;-2.322;2022-10-16T03:13:53;11.60;69.90
65408;DHT22;52017;51.230;-2.322;2022-10-16T03:17:35;11.60;70.00
65408;DHT22;52017;51.230;-2.322;2022-10-16T03:21:17;11.60;70.10
65408;DHT22;52017;51.230;-2.322;2022-10-16T03:24:59;11.50;70.10
65408;DHT22;52017;51.230;-2.322;2022-10-16T03:28:41;11.50;70.10
65408;DHT22;52017;51.230;-2.322;2022-10-16T03:32:23;11.50;70.20
65408;DHT22;52017;51.230;-2.322;2022-10-16T03:36:06;11.50;70.10
65408;DHT22;52017;51.230;-2.322;2022-10-16T03:39:48;11.50;70.10
65408;DHT22;52017;51.230;-2.322;2022-10-16T03:43:30;11.50;70.10
65408;DHT22;52017;51.230;-2.322;2022-10-16T03:47:12;11.50;70.00
65408;DHT22;52017;51.230;-2.322;2022-10-16T03:50:54;11.50;70.10
65408;DHT22;52017;51.230;-2.322;2022-10-16T03:54:36;11.40;70.10
65408;DHT22;52017;51.230;-2.322;2022-10-16T03:58:18;11.40;70.20
65408;DHT22;52017;51.230;-2.322;2022-10-16T04:02:01;11.40;70.20
65408;DHT22;52017;51.230;-2.322;2022-10-16T04:05:44;11.40;70.30
65408;DHT22;52017;51.230;-2.322;2022-10-16T04:09:26;11.30;70.30
65408;DHT22;52017;51.230;-2.322;2022-10-16T04:13:08;11.30;70.30
65408;DHT22;52017;51.230;-2.322;2022-10-16T04:16:50;11.30;70.40
65408;DHT22;52017;51.230;-2.322;2022-10-16T04:20:33;11.20;70.40
65408;DHT22;52017;51.230;-2.322;2022-10-16T04:24:15;11.20;70.50
65408;DHT22;52017;51.230;-2.322;2022-10-16T04:27:57;11.20;70.60
65408;DHT22;52017;51.230;-2.322;2022-10-16T04:31:38;11.20;70.60
65408;DHT22;52017;51.230;-2.322;2022-10-16T04:35:21;11.10;70.50
65408;DHT22;52017;51.230;-2.322;2022-10-16T04:39:03;11.10;70.60
65408;DHT22;52017;51.230;-2.322;2022-10-16T04:42:45;11.10;70.60
65408;DHT22;52017;51.230;-2.322;2022-10-16T04:46:27;11.00;70.60
65408;DHT22;52017;51.230;-2.322;2022-10-16T04:50:09;11.00;70.70
65408;DHT22;52017;51.230;-2.322;2022-10-16T04:53:51;11.00;70.80
65408;DHT22;52017;51.230;-2.322;2022-10-16T04:57:34;10.90;71.00
65408;DHT22;52017;51.230;-2.322;2022-10-16T05:01:16;10.90;71.10
65408;DHT22;52017;51.230;-2.322;2022-10-16T05:04:57;10.80;71.20
65408;DHT22;52017;51.230;-2.322;2022-10-16T05:08:39;10.80;71.30
65408;DHT22;52017;51.230;-2.322;2022-10-16T05:12:21;10.70;71.40
65408;DHT22;52017;51.230;-2.322;2022-10-16T05:16:03;10.60;71.50
65408;DHT22;52017;51.230;-2.322;2022-10-16T05:19:45;10.60;71.50
65408;DHT22;52017;51.230;-2.322;2022-10-16T05:23:27;10.60;71.60
65408;DHT22;52017;51.230;-2.322;2022-10-16T05:27:10;10.60;71.70
65408;DHT22;52017;51.230;-2.322;2022-10-16T05:30:53;10.60;71.80
65408;DHT22;52017;51.230;-2.322;2022-10-16T05:34:35;10.60;71.80
65408;DHT22;52017;51.230;-2.322;2022-10-16T05:38:18;10.60;71.80
65408;DHT22;52017;51.230;-2.322;2022-10-16T05:42:00;10.60;71.90
65408;DHT22;52017;51.230;-2.322;2022-10-16T05:45:42;10.70;72.00
65408;DHT22;52017;51.230;-2.322;2022-10-16T05:49:24;10.80;72.10
65408;DHT22;52017;51.230;-2.322;2022-10-16T05:53:06;10.80;72.10
65408;DHT22;52017;51.230;-2.322;2022-10-16T05:56:48;10.90;72.00
65408;DHT22;52017;51.230;-2.322;2022-10-16T06:00:30;10.90;72.10
65408;DHT22;52017;51.230;-2.322;2022-10-16T06:04:12;11.00;72.20
65408;DHT22;52017;51.230;-2.322;2022-10-16T06:07:54;10.90;72.20
65408;DHT22;52017;51.230;-2.322;2022-10-16T06:11:36;10.90;72.20
65408;DHT22;52017;51.230;-2.322;2022-10-16T06:15:18;10.90;72.30
65408;DHT22;52017;51.230;-2.322;2022-10-16T06:19:00;10.80;72.30
65408;DHT22;52017;51.230;-2.322;2022-10-16T06:22:42;10.80;72.30
65408;DHT22;52017;51.230;-2.322;2022-10-16T06:26:26;10.80;72.40
65408;DHT22;52017;51.230;-2.322;2022-10-16T06:30:09;10.80;72.50
65408;DHT22;52017;51.230;-2.322;2022-10-16T06:33:51;10.70;72.60
65408;DHT22;52017;51.230;-2.322;2022-10-16T06:37:33;10.60;72.80
65408;DHT22;52017;51.230;-2.322;2022-10-16T06:41:17;10.50;73.00
65408;DHT22;52017;51.230;-2.322;2022-10-16T06:44:59;10.50;73.10
65408;DHT22;52017;51.230;-2.322;2022-10-16T06:48:41;10.50;73.10
65408;DHT22;52017;51.230;-2.322;2022-10-16T06:52:23;10.50;73.20
65408;DHT22;52017;51.230;-2.322;2022-10-16T06:56:11;10.50;73.30
65408;DHT22;52017;51.230;-2.322;2022-10-16T06:59:53;10.50;73.60
65408;DHT22;52017;51.230;-2.322;2022-10-16T07:03:37;10.50;73.40
65408;DHT22;52017;51.230;-2.322;2022-10-16T07:07:19;10.50;73.50
65408;DHT22;52017;51.230;-2.322;2022-10-16T07:11:04;10.50;73.70
65408;DHT22;52017;51.230;-2.322;2022-10-16T07:14:47;10.50;73.70
65408;DHT22;52017;51.230;-2.322;2022-10-16T07:18:29;10.50;73.70
65408;DHT22;52017;51.230;-2.322;2022-10-16T07:22:11;10.50;73.70
65408;DHT22;52017;51.230;-2.322;2022-10-16T07:25:54;10.50;73.80
65408;DHT22;52017;51.230;-2.322;2022-10-16T07:29:36;10.50;73.90
65408;DHT22;52017;51.230;-2.322;2022-10-16T07:33:18;10.50;73.90
65408;DHT22;52017;51.230;-2.322;2022-10-16T07:37:00;10.50;74.00
65408;DHT22;52017;51.230;-2.322;2022-10-16T07:40:42;10.60;74.10
65408;DHT22;52017;51.230;-2.322;2022-10-16T07:44:24;10.60;74.20
65408;DHT22;52017;51.230;-2.322;2022-10-16T07:48:06;10.70;74.20
65408;DHT22;52017;51.230;-2.322;2022-10-16T07:51:48;10.80;74.30
65408;DHT22;52017;51.230;-2.322;2022-10-16T07:55:30;10.90;74.30
65408;DHT22;52017;51.230;-2.322;2022-10-16T07:59:12;10.90;74.30
65408;DHT22;52017;51.230;-2.322;2022-10-16T08:02:54;11.00;74.30
65408;DHT22;52017;51.230;-2.322;2022-10-16T08:06:38;11.00;74.30
65408;DHT22;52017;51.230;-2.322;2022-10-16T08:10:22;11.10;74.20
65408;DHT22;52017;51.230;-2.322;2022-10-16T08:14:04;11.20;74.20
65408;DHT22;52017;51.230;-2.322;2022-10-16T08:17:58;11.30;74.20
65408;DHT22;52017;51.230;-2.322;2022-10-16T08:21:40;11.40;74.70
65408;DHT22;52017;51.230;-2.322;2022-10-16T08:25:23;11.50;74.20
65408;DHT22;52017;51.230;-2.322;2022-10-16T08:29:05;11.50;74.20
65408;DHT22;52017;51.230;-2.322;2022-10-16T08:32:47;11.70;74.30
65408;DHT22;52017;51.230;-2.322;2022-10-16T08:36:29;12.20;74.60
65408;DHT22;52017;51.230;-2.322;2022-10-16T08:40:19;13.00;74.30
65408;DHT22;52017;51.230;-2.322;2022-10-16T08:48:00;14.70;71.50
65408;DHT22;52017;51.230;-2.322;2022-10-16T08:51:43;15.20;70.90
65408;DHT22;52017;51.230;-2.322;2022-10-16T08:55:46;15.50;70.10
65408;DHT22;52017;51.230;-2.322;2022-10-16T08:59:31;15.50;69.10
65408;DHT22;52017;51.230;-2.322;2022-10-16T09:11:25;15.40;68.30
65408;DHT22;52017;51.230;-2.322;2022-10-16T09:15:21;15.90;67.70
65408;DHT22;52017;51.230;-2.322;2022-10-16T09:19:27;16.30;66.70
65408;DHT22;52017;51.230;-2.322;2022-10-16T09:23:28;17.10;64.90
65408;DHT22;52017;51.230;-2.322;2022-10-16T09:27:14;18.10;63.40
65408;DHT22;52017;51.230;-2.322;2022-10-16T09:30:56;19.00;63.60
65408;DHT22;52017;51.230;-2.322;2022-10-16T09:34:45;19.70;63.10
65408;DHT22;52017;51.230;-2.322;2022-10-16T09:38:38;20.20;61.20
65408;DHT22;52017;51.230;-2.322;2022-10-16T09:42:30;20.80;60.20
65408;DHT22;52017;51.230;-2.322;2022-10-16T09:50:23;21.80;55.40
65408;DHT22;52017;51.230;-2.322;2022-10-16T09:57:52;23.20;54.20
65408;DHT22;52017;51.230;-2.322;2022-10-16T10:01:46;23.80;52.70
65408;DHT22;52017;51.230;-2.322;2022-10-16T10:05:29;24.40;49.50
65408;DHT22;52017;51.230;-2.322;2022-10-16T10:09:26;24.60;50.30
65408;DHT22;52017;51.230;-2.322;2022-10-16T10:13:20;25.10;46.90
65408;DHT22;52017;51.230;-2.322;2022-10-16T10:21:01;26.00;45.80
65408;DHT22;52017;51.230;-2.322;2022-10-16T10:36:44;27.80;41.10
65408;DHT22;52017;51.230;-2.322;2022-10-16T10:44:33;28.00;40.60
65408;DHT22;52017;51.230;-2.322;2022-10-16T10:48:29;27.70;41.80
65408;DHT22;52017;51.230;-2.322;2022-10-16T11:08:19;26.50;40.40
65408;DHT22;52017;51.230;-2.322;2022-10-16T11:12:18;26.60;40.50
65408;DHT22;52017;51.230;-2.322;2022-10-16T11:16:19;27.60;38.00
65408;DHT22;52017;51.230;-2.322;2022-10-16T11:20:18;28.20;36.70
65408;DHT22;52017;51.230;-2.322;2022-10-16T11:24:21;28.60;36.20
65408;DHT22;52017;51.230;-2.322;2022-10-16T11:28:22;28.80;35.80
65408;DHT22;52017;51.230;-2.322;2022-10-16T11:32:24;28.90;35.80
65408;DHT22;52017;51.230;-2.322;2022-10-16T11:36:46;28.50;35.50
65408;DHT22;52017;51.230;-2.322;2022-10-16T11:40:37;27.00;37.70
65408;DHT22;52017;51.230;-2.322;2022-10-16T11:48:30;26.50;38.10
65408;DHT22;52017;51.230;-2.322;2022-10-16T11:52:29;26.60;38.00
65408;DHT22;52017;51.230;-2.322;2022-10-16T11:56:16;27.20;37.70
65408;DHT22;52017;51.230;-2.322;2022-10-16T12:00:14;28.10;36.50
65408;DHT22;52017;51.230;-2.322;2022-10-16T12:08:09;28.00;35.30
65408;DHT22;52017;51.230;-2.322;2022-10-16T12:11:53;26.60;37.30
65408;DHT22;52017;51.230;-2.322;2022-10-16T12:15:38;26.50;38.50
65408;DHT22;52017;51.230;-2.322;2022-10-16T12:19:40;26.60;37.70
65408;DHT22;52017;51.230;-2.322;2022-10-16T12:23:22;26.40;37.00
65408;DHT22;52017;51.230;-2.322;2022-10-16T12:27:18;26.00;37.00
65408;DHT22;52017;51.230;-2.322;2022-10-16T12:31:04;25.20;38.00
65408;DHT22;52017;51.230;-2.322;2022-10-16T12:34:50;24.90;38.70
65408;DHT22;52017;51.230;-2.322;2022-10-16T12:38:46;25.10;38.60
65408;DHT22;52017;51.230;-2.322;2022-10-16T12:42:33;25.20;37.80
65408;DHT22;52017;51.230;-2.322;2022-10-16T12:49:58;25.80;37.80
65408;DHT22;52017;51.230;-2.322;2022-10-16T12:53:46;25.60;37.50
65408;DHT22;52017;51.230;-2.322;2022-10-16T13:13:37;25.70;37.20
65408;DHT22;52017;51.230;-2.322;2022-10-16T13:29:32;25.70;37.80
65408;DHT22;52017;51.230;-2.322;2022-10-16T13:33:32;25.50;36.90
65408;DHT22;52017;51.230;-2.322;2022-10-16T13:37:19;25.00;37.10
65408;DHT22;52017;51.230;-2.322;2022-10-16T13:41:13;24.20;37.60
65408;DHT22;52017;51.230;-2.322;2022-10-16T13:44:56;23.60;38.80
65408;DHT22;52017;51.230;-2.322;2022-10-16T13:48:38;23.00;39.40
65408;DHT22;52017;51.230;-2.322;2022-10-16T13:52:21;22.30;40.30
65408;DHT22;52017;51.230;-2.322;2022-10-16T13:56:05;21.80;41.30
65408;DHT22;52017;51.230;-2.322;2022-10-16T13:59:47;21.20;42.50
65408;DHT22;52017;51.230;-2.322;2022-10-16T14:03:30;20.80;43.60
65408;DHT22;52017;51.230;-2.322;2022-10-16T14:07:34;20.40;44.50
65408;DHT22;52017;51.230;-2.322;2022-10-16T14:11:22;20.10;45.40
65408;DHT22;52017;51.230;-2.322;2022-10-16T14:15:15;19.90;46.50
65408;DHT22;52017;51.230;-2.322;2022-10-16T14:19:03;19.70;46.70
65408;DHT22;52017;51.230;-2.322;2022-10-16T14:23:04;19.60;47.70
65408;DHT22;52017;51.230;-2.322;2022-10-16T14:27:00;19.40;48.60
65408;DHT22;52017;51.230;-2.322;2022-10-16T14:30:54;19.30;48.50
65408;DHT22;52017;51.230;-2.322;2022-10-16T14:34:38;19.20;49.60
65408;DHT22;52017;51.230;-2.322;2022-10-16T14:38:22;19.10;49.20
65408;DHT22;52017;51.230;-2.322;2022-10-16T14:42:04;19.00;49.70
65408;DHT22;52017;51.230;-2.322;2022-10-16T14:45:55;18.90;50.10
65408;DHT22;52017;51.230;-2.322;2022-10-16T14:49:37;18.80;51.20
65408;DHT22;52017;51.230;-2.322;2022-10-16T14:53:20;18.70;51.10
65408;DHT22;52017;51.230;-2.322;2022-10-16T14:57:02;18.70;51.60
65408;DHT22;52017;51.230;-2.322;2022-10-16T15:00:44;18.60;52.10
65408;DHT22;52017;51.230;-2.322;2022-10-16T15:04:26;18.50;52.60
65408;DHT22;52017;51.230;-2.322;2022-10-16T15:08:08;18.40;52.80
65408;DHT22;52017;51.230;-2.322;2022-10-16T15:11:50;18.30;53.30
65408;DHT22;52017;51.230;-2.322;2022-10-16T15:15:35;18.30;53.40
65408;DHT22;52017;51.230;-2.322;2022-10-16T15:19:18;18.20;53.60
65408;DHT22;52017;51.230;-2.322;2022-10-16T15:23:05;18.20;53.90
65408;DHT22;52017;51.230;-2.322;2022-10-16T15:26:49;18.10;54.50
65408;DHT22;52017;51.230;-2.322;2022-10-16T15:30:32;18.00;54.80
65408;DHT22;52017;51.230;-2.322;2022-10-16T15:34:17;18.00;54.60
65408;DHT22;52017;51.230;-2.322;2022-10-16T15:38:01;18.00;55.00
65408;DHT22;52017;51.230;-2.322;2022-10-16T15:41:45;18.00;55.10
65408;DHT22;52017;51.230;-2.322;2022-10-16T15:45:29;18.00;55.50
65408;DHT22;52017;51.230;-2.322;2022-10-16T15:49:11;18.00;56.40
65408;DHT22;52017;51.230;-2.322;2022-10-16T15:52:53;18.00;56.60
65408;DHT22;52017;51.230;-2.322;2022-10-16T15:56:35;17.90;56.60
65408;DHT22;52017;51.230;-2.322;2022-10-16T16:00:19;17.80;57.30
65408;DHT22;52017;51.230;-2.322;2022-10-16T16:04:05;17.70;57.50
65408;DHT22;52017;51.230;-2.322;2022-10-16T16:08:06;17.70;58.30
65408;DHT22;52017;51.230;-2.322;2022-10-16T16:11:49;17.60;58.60
65408;DHT22;52017;51.230;-2.322;2022-10-16T16:15:31;17.50;59.00
65408;DHT22;52017;51.230;-2.322;2022-10-16T16:19:13;17.40;60.20
65408;DHT22;52017;51.230;-2.322;2022-10-16T16:22:57;17.10;60.90
65408;DHT22;52017;51.230;-2.322;2022-10-16T16:26:39;16.80;62.60
65408;DHT22;52017;51.230;-2.322;2022-10-16T16:30:25;16.60;63.20
65408;DHT22;52017;51.230;-2.322;2022-10-16T16:34:09;16.50;63.60
65408;DHT22;52017;51.230;-2.322;2022-10-16T16:37:51;16.40;64.00
65408;DHT22;52017;51.230;-2.322;2022-10-16T16:41:33;16.30;64.60
65408;DHT22;52017;51.230;-2.322;2022-10-16T16:45:15;16.30;64.70
65408;DHT22;52017;51.230;-2.322;2022-10-16T16:48:58;16.10;65.30
65408;DHT22;52017;51.230;-2.322;2022-10-16T16:52:40;16.10;65.80
65408;DHT22;52017;51.230;-2.322;2022-10-16T16:56:23;16.00;66.40
65408;DHT22;52017;51.230;-2.322;2022-10-16T17:00:05;16.00;67.20
65408;DHT22;52017;51.230;-2.322;2022-10-16T17:03:50;16.00;66.90
65408;DHT22;52017;51.230;-2.322;2022-10-16T17:07:33;16.00;67.50
65408;DHT22;52017;51.230;-2.322;2022-10-16T17:11:21;16.00;68.30
65408;DHT22;52017;51.230;-2.322;2022-10-16T17:15:03;15.90;69.00
65408;DHT22;52017;51.230;-2.322;2022-10-16T17:18:46;15.90;68.80
65408;DHT22;52017;51.230;-2.322;2022-10-16T17:22:27;15.80;69.40
65408;DHT22;52017;51.230;-2.322;2022-10-16T17:26:15;15.70;69.90
65408;DHT22;52017;51.230;-2.322;2022-10-16T17:29:57;15.50;70.90
65408;DHT22;52017;51.230;-2.322;2022-10-16T17:33:40;15.50;71.70
65408;DHT22;52017;51.230;-2.322;2022-10-16T17:37:22;15.40;71.70
65408;DHT22;52017;51.230;-2.322;2022-10-16T17:41:22;15.40;72.70
65408;DHT22;52017;51.230;-2.322;2022-10-16T17:45:05;15.40;76.50
65408;DHT22;52017;51.230;-2.322;2022-10-16T17:48:49;15.30;72.80
65408;DHT22;52017;51.230;-2.322;2022-10-16T17:52:31;15.30;73.20
65408;DHT22;52017;51.230;-2.322;2022-10-16T17:56:13;15.30;74.20
65408;DHT22;52017;51.230;-2.322;2022-10-16T17:59:55;15.30;74.70
65408;DHT22;52017;51.230;-2.322;2022-10-16T18:03:37;15.30;74.80
65408;DHT22;52017;51.230;-2.322;2022-10-16T18:07:19;15.20;75.50
65408;DHT22;52017;51.230;-2.322;2022-10-16T18:11:02;15.20;75.60
65408;DHT22;52017;51.230;-2.322;2022-10-16T18:14:44;15.20;76.10
65408;DHT22;52017;51.230;-2.322;2022-10-16T18:18:26;15.20;77.40
65408;DHT22;52017;51.230;-2.322;2022-10-16T18:22:10;15.30;77.80
65408;DHT22;52017;51.230;-2.322;2022-10-16T18:25:52;15.20;77.80
65408;DHT22;52017;51.230;-2.322;2022-10-16T18:29:34;15.20;78.20
65408;DHT22;52017;51.230;-2.322;2022-10-16T18:33:18;15.30;78.50
65408;DHT22;52017;51.230;-2.322;2022-10-16T18:37:00;15.30;79.00
65408;DHT22;52017;51.230;-2.322;2022-10-16T18:40:42;15.40;79.90
65408;DHT22;52017;51.230;-2.322;2022-10-16T18:44:25;15.40;81.20
65408;DHT22;52017;51.230;-2.322;2022-10-16T18:48:07;15.40;81.80
65408;DHT22;52017;51.230;-2.322;2022-10-16T18:51:49;15.40;81.90
65408;DHT22;52017;51.230;-2.322;2022-10-16T18:55:36;15.40;82.70
65408;DHT22;52017;51.230;-2.322;2022-10-16T18:59:18;15.40;83.10
65408;DHT22;52017;51.230;-2.322;2022-10-16T19:03:00;15.50;82.60
65408;DHT22;52017;51.230;-2.322;2022-10-16T19:06:45;15.40;83.00
65408;DHT22;52017;51.230;-2.322;2022-10-16T19:10:27;15.50;83.50
65408;DHT22;52017;51.230;-2.322;2022-10-16T19:14:11;15.50;84.00
65408;DHT22;52017;51.230;-2.322;2022-10-16T19:17:53;15.50;84.00
65408;DHT22;52017;51.230;-2.322;2022-10-16T19:21:37;15.50;84.70
65408;DHT22;52017;51.230;-2.322;2022-10-16T19:25:21;15.50;84.80
65408;DHT22;52017;51.230;-2.322;2022-10-16T19:29:04;15.60;85.50
65408;DHT22;52017;51.230;-2.322;2022-10-16T19:32:46;15.60;85.30
65408;DHT22;52017;51.230;-2.322;2022-10-16T19:36:32;15.60;86.00
65408;DHT22;52017;51.230;-2.322;2022-10-16T19:40:14;15.70;86.50
65408;DHT22;52017;51.230;-2.322;2022-10-16T19:44:01;15.70;85.80
65408;DHT22;52017;51.230;-2.322;2022-10-16T19:47:43;15.80;86.90
65408;DHT22;52017;51.230;-2.322;2022-10-16T19:51:27;15.80;86.80
65408;DHT22;52017;51.230;-2.322;2022-10-16T19:55:09;15.90;86.70
65408;DHT22;52017;51.230;-2.322;2022-10-16T19:58:53;15.90;86.90
65408;DHT22;52017;51.230;-2.322;2022-10-16T20:02:35;15.90;87.20
65408;DHT22;52017;51.230;-2.322;2022-10-16T20:06:18;16.00;86.90
65408;DHT22;52017;51.230;-2.322;2022-10-16T20:10:01;16.00;87.40
65408;DHT22;52017;51.230;-2.322;2022-10-16T20:13:43;16.10;87.40
65408;DHT22;52017;51.230;-2.322;2022-10-16T20:17:25;16.10;87.90
65408;DHT22;52017;51.230;-2.322;2022-10-16T20:21:12;16.20;87.90
65408;DHT22;52017;51.230;-2.322;2022-10-16T20:24:54;16.20;88.30
65408;DHT22;52017;51.230;-2.322;2022-10-16T20:28:38;16.20;87.90
65408;DHT22;52017;51.230;-2.322;2022-10-16T20:32:21;16.30;88.10
65408;DHT22;52017;51.230;-2.322;2022-10-16T20:36:03;16.30;88.00
65408;DHT22;52017;51.230;-2.322;2022-10-16T20:39:45;16.30;88.40
65408;DHT22;52017;51.230;-2.322;2022-10-16T20:43:28;16.30;88.30
65408;DHT22;52017;51.230;-2.322;2022-10-16T20:47:10;16.30;88.30
65408;DHT22;52017;51.230;-2.322;2022-10-16T20:50:52;16.30;88.40
65408;DHT22;52017;51.230;-2.322;2022-10-16T20:54:34;16.30;88.30
65408;DHT22;52017;51.230;-2.322;2022-10-16T20:58:16;16.30;88.20
65408;DHT22;52017;51.230;-2.322;2022-10-16T21:01:58;16.30;88.30
65408;DHT22;52017;51.230;-2.322;2022-10-16T21:05:43;16.30;88.00
65408;DHT22;52017;51.230;-2.322;2022-10-16T21:09:25;16.30;88.50
65408;DHT22;52017;51.230;-2.322;2022-10-16T21:13:07;16.30;88.20
65408;DHT22;52017;51.230;-2.322;2022-10-16T21:16:49;16.20;88.30
65408;DHT22;52017;51.230;-2.322;2022-10-16T21:20:31;16.20;88.20
65408;DHT22;52017;51.230;-2.322;2022-10-16T21:24:13;16.20;88.00
65408;DHT22;52017;51.230;-2.322;2022-10-16T21:27:57;16.10;88.10
65408;DHT22;52017;51.230;-2.322;2022-10-16T21:31:40;16.10;88.10
65408;DHT22;52017;51.230;-2.322;2022-10-16T21:35:22;16.10;88.10
65408;DHT22;52017;51.230;-2.322;2022-10-16T21:39:09;16.20;88.10
65408;DHT22;52017;51.230;-2.322;2022-10-16T21:42:51;16.20;88.20
65408;DHT22;52017;51.230;-2.322;2022-10-16T21:46:35;16.20;88.00
65408;DHT22;52017;51.230;-2.322;2022-10-16T21:50:17;16.20;88.00
65408;DHT22;52017;51.230;-2.322;2022-10-16T21:54:00;16.20;87.90
65408;DHT22;52017;51.230;-2.322;2022-10-16T21:57:42;16.10;87.80
65408;DHT22;52017;51.230;-2.322;2022-10-16T22:01:25;16.10;87.80
65408;DHT22;52017;51.230;-2.322;2022-10-16T22:05:08;16.10;87.90
65408;DHT22;52017;51.230;-2.322;2022-10-16T22:08:51;16.00;87.70
65408;DHT22;52017;51.230;-2.322;2022-10-16T22:12:33;16.00;87.80
65408;DHT22;52017;51.230;-2.322;2022-10-16T22:16:19;16.10;87.90
65408;DHT22;52017;51.230;-2.322;2022-10-16T22:20:01;16.00;88.00
65408;DHT22;52017;51.230;-2.322;2022-10-16T22:23:44;16.00;87.80
65408;DHT22;52017;51.230;-2.322;2022-10-16T22:27:25;16.00;87.60
65408;DHT22;52017;51.230;-2.322;2022-10-16T22:31:09;16.00;87.70
65408;DHT22;52017;51.230;-2.322;2022-10-16T22:34:51;16.00;87.60
65408;DHT22;52017;51.230;-2.322;2022-10-16T22:38:34;16.00;87.60
65408;DHT22;52017;51.230;-2.322;2022-10-16T22:42:17;15.90;87.60
65408;DHT22;52017;51.230;-2.322;2022-10-16T22:46:03;15.90;87.50
65408;DHT22;52017;51.230;-2.322;2022-10-16T22:49:46;15.90;87.70
65408;DHT22;52017;51.230;-2.322;2022-10-16T22:53:28;15.90;87.50
65408;DHT22;52017;51.230;-2.322;2022-10-16T22:57:10;15.90;87.50
65408;DHT22;52017;51.230;-2.322;2022-10-16T23:00:52;15.90;87.30
65408;DHT22;52017;51.230;-2.322;2022-10-16T23:04:34;15.80;87.30
65408;DHT22;52017;51.230;-2.322;2022-10-16T23:08:16;15.80;87.30
65408;DHT22;52017;51.230;-2.322;2022-10-16T23:11:58;15.80;87.30
65408;DHT22;52017;51.230;-2.322;2022-10-16T23:15:41;15.80;87.30
65408;DHT22;52017;51.230;-2.322;2022-10-16T23:19:24;15.80;87.20
65408;DHT22;52017;51.230;-2.322;2022-10-16T23:23:06;15.70;87.20
65408;DHT22;52017;51.230;-2.322;2022-10-16T23:26:48;15.70;87.20
65408;DHT22;52017;51.230;-2.322;2022-10-16T23:30:30;15.60;87.10
65408;DHT22;52017;51.230;-2.322;2022-10-16T23:34:12;15.60;87.00
65408;DHT22;52017;51.230;-2.322;2022-10-16T23:37:54;15.60;87.10
65408;DHT22;52017;51.230;-2.322;2022-10-16T23:41:36;15.60;87.10
65408;DHT22;52017;51.230;-2.322;2022-10-16T23:45:18;15.60;87.10
65408;DHT22;52017;51.230;-2.322;2022-10-16T23:49:00;15.60;87.10
65408;DHT22;52017;51.230;-2.322;2022-10-16T23:52:42;15.60;87.10
65408;DHT22;52017;51.230;-2.322;2022-10-16T23:56:24;15.60;87.10
